Time;durP1;ratioP1;P1;durP2;ratioP2;P2;SDS_P1;SDS_P2;PMS_P1;PMS_P2;Temp;Humidity;BMP_temperature;BMP_pressure;BME280_temperature;BME280_humidity;BME280_pressure;Samples;Min_cycle;Max_cycle;Signal;HPM_P1;HPM_P2
2024/03/10 00:00:08;;;;;;;7.40;3.67;;;11.30;62.20;;;;;;5088409;28;20032;-62
2024/03/10 00:02:35;;;;;;;6.60;3.47;;;11.30;62.30;;;;;;5070292;28;20028;-62
2024/03/10 00:05:01;;;;;;;6.32;3.72;;;11.20;62.30;;;;;;5082843;28;20158;-62
2024/03/10 00:07:27;;;;;;;6.72;3.42;;;11.20;62.30;;;;;;5090793;28;20528;-61
2024/03/10 00:09:55;;;;;;;5.38;2.78;;;11.20;62.20;;;;;;5085769;28;20036;-65
2024/03/10 00:12:22;;;;;;;7.40;3.67;;;11.30;62.30;;;;;;5087164;28;20036;-65
2024/03/10 00:14:49;;;;;;;7.72;4.20;;;11.30;62.30;;;;;;5090607;28;20071;-64
2024/03/10 00:17:15;;;;;;;7.57;4.10;;;11.20;62.20;;;;;;5084796;28;20553;-65
2024/03/10 00:19:41;;;;;;;7.88;3.50;;;11.20;62.30;;;;;;5079250;28;20036;-64
2024/03/10 00:22:09;;;;;;;6.70;3.55;;;11.30;62.30;;;;;;5081024;28;20059;-64
2024/03/10 00:24:37;;;;;;;7.32;3.60;;;11.30;62.30;;;;;;5086348;28;20036;-65
2024/03/10 00:27:03;;;;;;;9.93;4.38;;;11.20;62.30;;;;;;5087295;28;20040;-64
2024/03/10 00:29:29;;;;;;;7.75;3.60;;;11.20;62.40;;;;;;5083942;28;20480;-64
2024/03/10 00:31:55;;;;;;;6.93;3.85;;;11.20;62.50;;;;;;5081772;28;20060;-65
2024/03/10 00:34:22;;;;;;;5.75;3.25;;;11.20;62.50;;;;;;5082102;28;20024;-62
2024/03/10 00:36:48;;;;;;;6.60;3.25;;;11.20;62.50;;;;;;5089882;28;20032;-64
2024/03/10 00:39:14;;;;;;;8.82;4.30;;;11.10;62.60;;;;;;5089082;28;20051;-64
2024/03/10 00:41:40;;;;;;;6.93;3.90;;;11.10;62.60;;;;;;5085781;28;20532;-64
2024/03/10 00:44:06;;;;;;;6.30;3.28;;;11.10;62.60;;;;;;5085382;28;20097;-64
2024/03/10 00:46:32;;;;;;;10.02;3.83;;;11.10;62.60;;;;;;5087230;28;20029;-64
2024/03/10 00:48:58;;;;;;;10.80;3.95;;;11.10;62.60;;;;;;5082878;28;20036;-64
2024/03/10 00:51:24;;;;;;;7.03;3.90;;;11.10;62.60;;;;;;5085302;28;20032;-64
2024/03/10 00:53:50;;;;;;;7.43;3.40;;;11.10;62.60;;;;;;5084594;28;20036;-64
2024/03/10 00:56:19;;;;;;;7.93;4.18;;;11.10;62.70;;;;;;5073041;28;20074;-64
2024/03/10 00:58:48;;;;;;;7.07;4.13;;;11.10;62.70;;;;;;5085084;28;20066;-62
2024/03/10 01:01:14;;;;;;;7.65;3.38;;;11.00;62.70;;;;;;5075847;28;20403;-64
2024/03/10 01:03:43;;;;;;;6.80;3.40;;;11.10;62.70;;;;;;5078998;28;20530;-64
2024/03/10 01:06:12;;;;;;;8.20;3.72;;;11.10;62.70;;;;;;5083680;28;20032;-64
2024/03/10 01:08:39;;;;;;;8.38;3.63;;;11.10;62.80;;;;;;5084817;28;20056;-62
2024/03/10 01:11:06;;;;;;;7.10;3.15;;;11.00;62.80;;;;;;5082186;28;20569;-62
2024/03/10 01:13:34;;;;;;;7.82;4.18;;;11.00;62.80;;;;;;5084631;28;20071;-61
2024/03/10 01:16:00;;;;;;;6.38;3.22;;;11.00;62.80;;;;;;5089532;28;20032;-62
2024/03/10 01:18:26;;;;;;;10.05;3.80;;;11.00;62.90;;;;;;5082031;28;20435;-61
2024/03/10 01:20:52;;;;;;;9.43;4.82;;;10.90;63.10;;;;;;5074502;28;20032;-62
2024/03/10 01:23:19;;;;;;;7.20;3.80;;;10.90;63.20;;;;;;5082994;28;20028;-62
2024/03/10 01:25:45;;;;;;;5.65;3.58;;;10.90;63.20;;;;;;5080321;28;20389;-64
2024/03/10 01:28:12;;;;;;;6.38;3.90;;;10.90;63.10;;;;;;5081290;28;20077;-61
2024/03/10 01:30:40;;;;;;;8.63;3.70;;;10.90;63.10;;;;;;5088924;28;20077;-61
2024/03/10 01:33:07;;;;;;;8.70;3.70;;;10.90;63.20;;;;;;5084496;28;20020;-61
2024/03/10 01:35:34;;;;;;;7.00;3.47;;;10.90;63.20;;;;;;5089068;28;20056;-61
2024/03/10 01:38:00;;;;;;;8.27;4.40;;;10.90;63.20;;;;;;5085622;28;20070;-64
2024/03/10 01:40:27;;;;;;;7.53;4.38;;;10.90;63.30;;;;;;5086948;28;20483;-65
2024/03/10 01:42:56;;;;;;;5.65;3.47;;;10.90;63.40;;;;;;5078406;28;20363;-64
2024/03/10 01:45:23;;;;;;;8.13;4.05;;;10.90;63.40;;;;;;5086901;28;20073;-64
2024/03/10 01:47:51;;;;;;;6.93;4.32;;;10.80;63.30;;;;;;5084011;28;20399;-64
2024/03/10 01:50:17;;;;;;;8.88;3.65;;;10.80;63.40;;;;;;5088722;28;20036;-64
2024/03/10 01:52:47;;;;;;;9.13;4.18;;;10.80;63.50;;;;;;5084786;28;20052;-64
2024/03/10 01:55:17;;;;;;;6.97;4.25;;;10.80;63.50;;;;;;5088568;28;20032;-62
2024/03/10 01:57:46;;;;;;;7.97;4.00;;;10.80;63.60;;;;;;5082809;28;20364;-64
2024/03/10 02:00:13;;;;;;;6.05;3.08;;;10.80;63.50;;;;;;5080378;28;20417;-64
2024/03/10 02:02:41;;;;;;;10.55;3.58;;;10.80;63.50;;;;;;5086477;28;20356;-64
2024/03/10 02:05:12;;;;;;;7.05;3.90;;;10.80;63.50;;;;;;5085862;28;20494;-64
2024/03/10 02:07:38;;;;;;;5.25;3.55;;;10.80;63.50;;;;;;5088166;28;20078;-64
2024/03/10 02:10:06;;;;;;;5.78;3.33;;;10.80;63.40;;;;;;5087165;28;20028;-64
2024/03/10 02:12:33;;;;;;;10.00;4.38;;;10.80;63.50;;;;;;5086886;28;20376;-64
2024/03/10 02:15:00;;;;;;;6.63;4.30;;;10.80;63.50;;;;;;5086689;28;20043;-64
2024/03/10 02:17:30;;;;;;;9.05;4.10;;;10.80;63.60;;;;;;5086846;28;20383;-64
2024/03/10 02:19:57;;;;;;;9.02;4.53;;;10.80;63.60;;;;;;5085905;28;20024;-64
2024/03/10 02:22:27;;;;;;;5.15;3.35;;;10.80;63.60;;;;;;5087505;28;20024;-64
2024/03/10 02:25:02;;;;;;;6.95;3.65;;;10.80;63.70;;;;;;5085159;28;20111;-64
2024/03/10 02:27:29;;;;;;;8.43;4.65;;;10.80;63.70;;;;;;5087797;28;20127;-64
2024/03/10 02:49:05;;;;;;;9.02;4.20;;;10.60;64.10;;;;;;5083446;28;20062;-64
2024/03/10 02:51:32;;;;;;;8.18;3.72;;;10.60;64.20;;;;;;5088093;28;20032;-62
2024/03/10 02:53:59;;;;;;;6.45;3.50;;;10.50;64.20;;;;;;5084675;28;20029;-62
2024/03/10 02:56:25;;;;;;;12.93;4.90;;;10.60;64.30;;;;;;5088043;28;20028;-64
2024/03/10 02:58:51;;;;;;;8.23;4.15;;;10.60;64.30;;;;;;5089870;28;20031;-62
2024/03/10 03:01:18;;;;;;;7.57;3.75;;;10.60;64.20;;;;;;5091893;28;20535;-62
2024/03/10 03:03:45;;;;;;;7.80;4.50;;;10.60;64.20;;;;;;5087488;28;20047;-62
2024/03/10 03:06:12;;;;;;;11.45;4.40;;;10.50;64.30;;;;;;5091670;28;20036;-62
2024/03/10 03:08:39;;;;;;;10.45;3.90;;;10.50;64.50;;;;;;5088953;28;20028;-65
2024/03/10 03:11:05;;;;;;;7.10;3.65;;;10.50;64.50;;;;;;5080673;28;20482;-64
2024/03/10 03:13:31;;;;;;;6.40;2.85;;;10.50;64.50;;;;;;5083282;28;20043;-64
2024/03/10 03:16:00;;;;;;;10.45;4.30;;;10.50;64.50;;;;;;5090055;28;20402;-64
2024/03/10 03:18:26;;;;;;;9.52;4.55;;;10.50;64.50;;;;;;5084721;28;20428;-64
2024/03/10 03:20:52;;;;;;;8.63;4.30;;;10.50;64.60;;;;;;5083663;28;20031;-64
2024/03/10 03:23:18;;;;;;;7.45;3.78;;;10.40;64.60;;;;;;5081610;28;20036;-62
2024/03/10 03:25:44;;;;;;;7.38;4.35;;;10.40;64.70;;;;;;5077930;28;20456;-64
2024/03/10 03:28:11;;;;;;;7.35;4.20;;;10.40;64.60;;;;;;5079067;28;20024;-64
2024/03/10 03:30:37;;;;;;;7.97;4.32;;;10.40;64.60;;;;;;5079230;28;20111;-61
2024/03/10 03:33:03;;;;;;;8.18;4.40;;;10.40;64.70;;;;;;5082112;28;20030;-64
2024/03/10 03:35:29;;;;;;;8.75;4.40;;;10.40;64.70;;;;;;5085811;28;20577;-62
2024/03/10 03:37:55;;;;;;;10.00;3.97;;;10.40;64.70;;;;;;5079052;28;20367;-62
2024/03/10 03:40:23;;;;;;;8.68;3.55;;;10.40;64.70;;;;;;5090245;28;20032;-62
2024/03/10 03:42:49;;;;;;;5.72;3.25;;;10.40;64.70;;;;;;5086727;28;20436;-62
2024/03/10 03:45:16;;;;;;;7.80;4.05;;;10.40;64.70;;;;;;5084823;28;20020;-62
2024/03/10 03:47:42;;;;;;;7.72;4.57;;;10.40;64.70;;;;;;5079653;28;20028;-62
2024/03/10 03:50:08;;;;;;;9.07;4.75;;;10.30;64.70;;;;;;5073747;28;20032;-62
2024/03/10 03:52:34;;;;;;;7.78;3.88;;;10.30;64.80;;;;;;5075754;28;20047;-62
2024/03/10 03:55:02;;;;;;;7.85;4.22;;;10.30;64.80;;;;;;5076450;28;20033;-62
2024/03/10 03:57:28;;;;;;;9.73;3.97;;;10.30;64.80;;;;;;5080019;28;20024;-64
2024/03/10 03:59:54;;;;;;;8.27;4.05;;;10.30;64.90;;;;;;5083512;28;20030;-64
2024/03/10 04:02:25;;;;;;;7.88;4.43;;;10.30;64.90;;;;;;5086627;28;20020;-62
2024/03/10 04:04:53;;;;;;;6.23;3.43;;;10.30;64.90;;;;;;5090690;28;20077;-62
2024/03/10 04:07:18;;;;;;;7.63;4.47;;;10.20;64.90;;;;;;5088160;28;20278;-64
2024/03/10 04:09:44;;;;;;;8.20;3.70;;;10.20;65.00;;;;;;5089632;28;20399;-64
2024/03/10 04:12:11;;;;;;;8.18;3.92;;;10.20;65.00;;;;;;5084347;28;20089;-64
2024/03/10 04:14:40;;;;;;;7.45;3.38;;;10.20;65.00;;;;;;5086809;28;20032;-62
2024/03/10 04:17:06;;;;;;;7.97;4.68;;;10.10;65.00;;;;;;5087341;28;20114;-64
2024/03/10 04:19:33;;;;;;;9.75;4.53;;;10.10;65.20;;;;;;5083237;28;20389;-64
2024/03/10 04:21:59;;;;;;;10.88;4.90;;;10.00;65.40;;;;;;5088978;28;20032;-62
2024/03/10 04:24:25;;;;;;;8.73;4.28;;;10.00;65.50;;;;;;5090304;28;20081;-63
2024/03/10 04:26:51;;;;;;;9.68;4.30;;;9.90;65.50;;;;;;5089003;28;20066;-61
2024/03/10 04:29:17;;;;;;;7.63;4.00;;;9.90;65.60;;;;;;5077464;28;20064;-64
2024/03/10 04:31:43;;;;;;;7.30;3.50;;;9.90;65.60;;;;;;5088626;28;20142;-64
2024/03/10 04:34:12;;;;;;;5.95;2.88;;;9.80;65.60;;;;;;5087641;28;20167;-62
2024/03/10 04:36:39;;;;;;;6.68;4.28;;;9.80;65.60;;;;;;5089494;28;20072;-64
2024/03/10 04:39:05;;;;;;;8.48;4.13;;;9.80;65.70;;;;;;5079866;28;20028;-62
2024/03/10 04:41:31;;;;;;;9.85;4.85;;;9.80;65.70;;;;;;5089212;28;20081;-62
2024/03/10 04:43:57;;;;;;;7.10;3.75;;;9.80;65.80;;;;;;5089223;28;20032;-64
2024/03/10 04:46:23;;;;;;;7.90;3.53;;;9.70;65.80;;;;;;5081056;28;20028;-61
2024/03/10 04:48:57;;;;;;;9.07;4.72;;;9.70;65.80;;;;;;5082826;28;20395;-64
2024/03/10 04:51:26;;;;;;;10.13;4.47;;;9.70;66.60;;;;;;5080970;28;20409;-64
2024/03/10 04:53:53;;;;;;;8.13;3.58;;;9.60;65.90;;;;;;5085833;28;20415;-61
2024/03/10 04:56:19;;;;;;;7.50;3.95;;;9.60;66.00;;;;;;5085882;28;20458;-62
2024/03/10 04:58:44;;;;;;;10.65;4.78;;;9.60;66.00;;;;;;5081028;28;20085;-64
2024/03/10 05:01:10;;;;;;;9.40;3.97;;;9.60;66.00;;;;;;5083841;28;20027;-62
2024/03/10 05:03:37;;;;;;;7.95;3.97;;;9.60;66.00;;;;;;5084307;28;20511;-62
2024/03/10 05:06:05;;;;;;;10.07;5.00;;;9.60;66.10;;;;;;5088132;28;20054;-62
2024/03/10 05:08:31;;;;;;;8.90;4.88;;;9.60;66.10;;;;;;5081290;28;20040;-62
2024/03/10 05:10:59;;;;;;;8.35;3.92;;;9.60;66.10;;;;;;5075637;28;20118;-64
2024/03/10 05:13:25;;;;;;;10.55;5.03;;;9.60;66.10;;;;;;5080886;28;20058;-64
2024/03/10 05:15:51;;;;;;;8.20;4.00;;;9.50;66.00;;;;;;5086396;28;20064;-64
2024/03/10 05:18:17;;;;;;;7.03;3.30;;;9.60;66.10;;;;;;5085575;28;20024;-64
2024/03/10 05:20:42;;;;;;;7.82;4.45;;;9.60;66.10;;;;;;5088996;28;20028;-62
2024/03/10 05:23:08;;;;;;;7.55;4.10;;;9.50;66.00;;;;;;5088081;28;20077;-62
2024/03/10 05:25:34;;;;;;;8.18;4.13;;;9.50;66.10;;;;;;5088290;28;20493;-62
2024/03/10 05:28:00;;;;;;;9.95;4.78;;;9.50;66.10;;;;;;5088920;28;20039;-64
2024/03/10 05:30:26;;;;;;;9.60;3.90;;;9.50;66.10;;;;;;5088346;28;20040;-62
2024/03/10 05:32:52;;;;;;;9.43;3.88;;;9.50;66.00;;;;;;5081614;28;20040;-62
2024/03/10 05:35:20;;;;;;;10.95;4.75;;;9.50;66.00;;;;;;5087127;28;20089;-64
2024/03/10 05:37:46;;;;;;;7.43;4.07;;;9.50;66.10;;;;;;5085603;28;20020;-62
2024/03/10 05:40:12;;;;;;;5.75;3.22;;;9.50;66.00;;;;;;5085034;28;20028;-62
2024/03/10 05:42:38;;;;;;;11.00;5.10;;;9.50;66.00;;;;;;5082763;28;20028;-62
2024/03/10 05:45:06;;;;;;;9.07;4.05;;;9.50;66.00;;;;;;5080683;28;20413;-64
2024/03/10 05:47:32;;;;;;;8.93;3.83;;;9.50;66.10;;;;;;5083507;28;20065;-64
2024/03/10 05:49:59;;;;;;;11.90;4.78;;;9.50;66.10;;;;;;5083778;28;20023;-64
2024/03/10 05:52:26;;;;;;;9.45;5.20;;;9.40;66.20;;;;;;5077867;28;20035;-64
2024/03/10 05:54:52;;;;;;;10.88;5.10;;;9.40;66.30;;;;;;5082549;28;20025;-64
2024/03/10 05:57:18;;;;;;;8.73;4.68;;;9.40;66.20;;;;;;5079839;28;20029;-64
2024/03/10 05:59:45;;;;;;;8.85;3.85;;;9.40;66.20;;;;;;5085396;28;20028;-64
2024/03/10 06:02:13;;;;;;;9.90;5.13;;;9.40;66.30;;;;;;5072876;28;20036;-64
2024/03/10 06:04:43;;;;;;;10.93;5.13;;;9.40;66.40;;;;;;5078275;28;20020;-62
2024/03/10 06:07:10;;;;;;;9.38;4.30;;;9.40;66.40;;;;;;5085035;28;20644;-61
2024/03/10 06:09:36;;;;;;;8.57;4.30;;;9.40;66.40;;;;;;5070876;28;20033;-62
2024/03/10 06:12:03;;;;;;;11.23;4.53;;;9.30;66.50;;;;;;5082783;28;20055;-62
2024/03/10 06:14:30;;;;;;;8.50;4.47;;;9.30;66.60;;;;;;5091441;28;20495;-64
2024/03/10 06:16:57;;;;;;;10.55;4.97;;;9.30;66.60;;;;;;5088764;28;20013;-64
2024/03/10 06:27:36;;;;;;;8.63;3.90;;;9.30;66.60;;;;;;5085593;28;20132;-62
2024/03/10 06:30:02;;;;;;;7.10;3.40;;;9.30;66.50;;;;;;5087735;28;20479;-62
2024/03/10 06:32:28;;;;;;;8.57;4.38;;;9.30;66.50;;;;;;5085080;28;20105;-64
2024/03/10 06:34:54;;;;;;;7.85;3.90;;;9.30;66.60;;;;;;5091331;28;20020;-62
2024/03/10 06:37:20;;;;;;;9.55;4.63;;;9.30;66.60;;;;;;5092685;28;20128;-64
2024/03/10 06:39:46;;;;;;;8.52;4.43;;;9.30;66.50;;;;;;5090142;28;20157;-64
2024/03/10 06:42:12;;;;;;;10.70;5.25;;;9.40;66.50;;;;;;5089758;28;20491;-62
2024/03/10 06:44:38;;;;;;;9.02;3.88;;;9.40;66.40;;;;;;5092395;28;20032;-62
2024/03/10 06:47:04;;;;;;;10.73;3.72;;;9.40;66.40;;;;;;5083129;28;20025;-64
2024/03/10 06:49:30;;;;;;;8.65;3.35;;;9.40;66.40;;;;;;5089447;28;20374;-64
2024/03/10 06:51:57;;;;;;;8.60;4.28;;;9.50;66.30;;;;;;5084223;28;20102;-64
2024/03/10 06:54:23;;;;;;;14.38;4.43;;;9.50;66.30;;;;;;5072229;28;20069;-62
2024/03/10 06:56:50;;;;;;;10.13;4.25;;;9.50;66.20;;;;;;5089129;28;20031;-64
2024/03/10 06:59:16;;;;;;;8.60;4.15;;;9.50;66.30;;;;;;5090648;28;20385;-64
2024/03/10 07:01:45;;;;;;;10.43;5.03;;;9.50;66.30;;;;;;5089469;28;20028;-64
2024/03/10 07:04:13;;;;;;;5.70;3.80;;;9.50;66.30;;;;;;5089375;28;20089;-64
2024/03/10 07:06:39;;;;;;;9.25;4.30;;;9.50;66.30;;;;;;5090212;28;20032;-64
2024/03/10 07:09:11;;;;;;;10.48;4.57;;;9.50;66.30;;;;;;5084104;28;20082;-64
2024/03/10 07:11:40;;;;;;;9.05;4.50;;;9.50;66.40;;;;;;5087169;28;20460;-64
2024/03/10 07:14:05;;;;;;;6.70;3.25;;;9.60;66.40;;;;;;5078581;28;20055;-62
2024/03/10 07:16:31;;;;;;;7.85;3.75;;;9.60;66.40;;;;;;5066363;28;20028;-62
2024/03/10 07:18:57;;;;;;;8.35;4.03;;;9.60;66.40;;;;;;5066642;28;20021;-63
2024/03/10 07:21:23;;;;;;;9.82;4.97;;;9.60;66.50;;;;;;5090771;28;20024;-63
2024/03/10 07:23:49;;;;;;;7.40;4.35;;;9.60;66.40;;;;;;5091128;28;20032;-63
2024/03/10 07:26:15;;;;;;;7.57;4.60;;;9.70;66.30;;;;;;5086795;28;20343;-63
2024/03/10 07:28:41;;;;;;;10.27;4.38;;;9.70;66.30;;;;;;5083502;28;20037;-63
2024/03/10 07:31:06;;;;;;;7.68;3.88;;;9.70;66.30;;;;;;5082687;28;20028;-63
2024/03/10 07:33:33;;;;;;;5.22;3.45;;;9.80;66.30;;;;;;5086989;28;20036;-63
2024/03/10 07:35:59;;;;;;;6.45;3.58;;;9.80;66.20;;;;;;5083710;28;20391;-63
2024/03/10 07:38:25;;;;;;;8.85;3.33;;;9.90;66.00;;;;;;5081854;28;20013;-63
2024/03/10 07:40:51;;;;;;;7.10;3.67;;;10.00;65.90;;;;;;5068360;28;20028;-63
2024/03/10 07:43:17;;;;;;;7.75;3.47;;;10.00;65.80;;;;;;5087075;28;20028;-64
2024/03/10 07:45:44;;;;;;;9.02;4.93;;;10.00;65.70;;;;;;5078936;28;20029;-63
2024/03/10 07:48:11;;;;;;;7.72;4.05;;;10.20;65.70;;;;;;5087300;28;20449;-64
2024/03/10 07:50:37;;;;;;;5.82;3.20;;;10.20;65.60;;;;;;5083156;28;20028;-61
2024/03/10 07:53:03;;;;;;;7.65;3.13;;;10.30;65.60;;;;;;5082957;28;20033;-61
2024/03/10 07:55:32;;;;;;;7.15;3.45;;;10.40;65.50;;;;;;5076815;28;20502;-61
2024/03/10 07:57:58;;;;;;;9.73;3.63;;;10.40;65.40;;;;;;5089186;28;20020;-62
2024/03/10 08:00:25;;;;;;;7.18;3.55;;;10.50;65.20;;;;;;5081746;28;20502;-61
2024/03/10 08:02:54;;;;;;;6.43;3.40;;;10.60;65.10;;;;;;5076593;28;20471;-61
2024/03/10 08:05:21;;;;;;;7.55;4.10;;;10.70;64.90;;;;;;5086623;28;20039;-61
2024/03/10 08:07:48;;;;;;;6.15;3.42;;;10.80;64.80;;;;;;5077591;28;20036;-61
2024/03/10 08:10:15;;;;;;;6.88;4.18;;;10.90;64.70;;;;;;5085904;28;20032;-63
2024/03/10 08:12:45;;;;;;;7.15;3.55;;;11.00;65.10;;;;;;5083100;28;20036;-61
2024/03/10 08:15:12;;;;;;;8.90;3.65;;;11.10;64.30;;;;;;5083126;28;20170;-64
2024/03/10 08:17:38;;;;;;;11.38;4.18;;;11.20;64.10;;;;;;5072213;28;20062;-61
2024/03/10 08:20:08;;;;;;;8.52;3.95;;;11.30;64.00;;;;;;5088459;28;20506;-63
2024/03/10 08:22:37;;;;;;;7.78;3.72;;;11.40;63.90;;;;;;5086296;28;20326;-63
2024/03/10 08:25:06;;;;;;;9.27;5.07;;;11.50;63.70;;;;;;5079293;28;20117;-63
2024/03/10 08:27:33;;;;;;;10.90;4.50;;;11.50;63.70;;;;;;5084668;28;20479;-61
2024/03/10 08:30:00;;;;;;;8.80;3.28;;;11.50;63.50;;;;;;5082433;28;20026;-61
2024/03/10 08:32:26;;;;;;;8.75;4.40;;;11.60;63.50;;;;;;5087475;28;20036;-61
2024/03/10 08:34:53;;;;;;;9.10;3.50;;;11.60;63.40;;;;;;5088344;28;20031;-61
2024/03/10 08:37:20;;;;;;;6.50;3.55;;;11.60;63.50;;;;;;5089568;28;20032;-61
2024/03/10 08:39:50;;;;;;;7.55;3.88;;;11.60;63.50;;;;;;5078721;28;20024;-63
2024/03/10 08:42:16;;;;;;;12.25;4.53;;;11.50;63.40;;;;;;5088001;28;20704;-61
2024/03/10 08:44:42;;;;;;;5.55;3.75;;;11.50;63.50;;;;;;5088526;28;20126;-64
2024/03/10 08:47:08;;;;;;;8.15;4.13;;;11.40;63.50;;;;;;5087710;28;20038;-63
2024/03/10 08:49:34;;;;;;;7.72;4.35;;;11.50;63.60;;;;;;5081127;28;20361;-62
2024/03/10 08:52:06;;;;;;;8.68;3.40;;;11.50;63.60;;;;;;5077229;28;20032;-65
2024/03/10 08:54:32;;;;;;;9.75;4.40;;;11.60;63.50;;;;;;5085862;28;20036;-62
2024/03/10 08:56:58;;;;;;;7.57;3.65;;;11.60;63.40;;;;;;5085283;28;20020;-64
2024/03/10 08:59:24;;;;;;;8.95;3.70;;;11.70;63.30;;;;;;5085521;28;20043;-65
2024/03/10 09:01:51;;;;;;;8.65;3.83;;;11.80;63.20;;;;;;5079972;28;20046;-65
2024/03/10 09:04:17;;;;;;;11.70;4.28;;;11.90;63.00;;;;;;5072685;28;20028;-65
2024/03/10 09:06:43;;;;;;;5.43;3.60;;;12.00;62.90;;;;;;5083237;28;20452;-62
2024/03/10 09:09:13;;;;;;;9.98;5.05;;;12.20;62.70;;;;;;5083919;28;20123;-62
2024/03/10 09:11:39;;;;;;;6.95;3.30;;;12.40;62.50;;;;;;5086961;28;20141;-62
2024/03/10 09:14:07;;;;;;;7.15;4.30;;;12.50;62.10;;;;;;5085748;28;20487;-62
2024/03/10 09:16:33;;;;;;;5.93;3.22;;;12.60;62.00;;;;;;5086629;28;20047;-62
2024/03/10 09:18:59;;;;;;;7.03;3.47;;;12.80;61.70;;;;;;5082355;28;20031;-62
2024/03/10 09:21:25;;;;;;;6.78;3.22;;;12.90;61.60;;;;;;5078858;28;20035;-62
2024/03/10 09:23:51;;;;;;;6.07;3.10;;;13.00;61.50;;;;;;5079126;28;20035;-62
2024/03/10 09:26:17;;;;;;;8.80;3.97;;;13.00;61.30;;;;;;5086821;28;20052;-62
2024/03/10 09:28:45;;;;;;;8.43;3.67;;;13.10;61.10;;;;;;5087444;28;20029;-63
2024/03/10 09:31:14;;;;;;;9.13;4.50;;;13.10;61.00;;;;;;5087906;28;20043;-63
2024/03/10 09:33:44;;;;;;;8.57;4.70;;;13.10;60.80;;;;;;5075844;28;20048;-63
2024/03/10 09:36:10;;;;;;;8.80;3.78;;;13.10;60.80;;;;;;5088764;28;20035;-63
2024/03/10 09:38:36;;;;;;;7.10;4.07;;;13.10;60.80;;;;;;5080167;28;20052;-63
2024/03/10 09:41:05;;;;;;;10.20;4.57;;;13.20;60.80;;;;;;5088143;28;20062;-63
2024/03/10 09:43:33;;;;;;;8.13;4.28;;;13.30;60.80;;;;;;5088044;28;20036;-63
2024/03/10 09:45:59;;;;;;;7.60;4.32;;;13.30;60.50;;;;;;5085083;28;20031;-65
2024/03/10 09:48:25;;;;;;;7.25;3.33;;;13.40;60.50;;;;;;5086309;28;20471;-63
2024/03/10 09:50:52;;;;;;;11.15;4.85;;;13.50;60.40;;;;;;5087826;28;20023;-63
2024/03/10 09:53:23;;;;;;;8.25;4.25;;;13.60;60.30;;;;;;5084577;28;20036;-63
2024/03/10 09:55:49;;;;;;;8.88;3.65;;;13.70;60.20;;;;;;5076597;28;20020;-63
2024/03/10 09:58:17;;;;;;;7.38;4.35;;;13.80;60.00;;;;;;5078307;28;20101;-63
2024/03/10 10:00:45;;;;;;;7.13;3.78;;;13.90;59.80;;;;;;5086592;28;20024;-63
2024/03/10 10:03:12;;;;;;;8.15;4.15;;;14.10;59.70;;;;;;5079426;28;20028;-65
2024/03/10 10:05:44;;;;;;;7.80;4.63;;;14.20;59.50;;;;;;5075227;28;20183;-65
2024/03/10 10:08:12;;;;;;;7.78;4.07;;;14.20;59.30;;;;;;5084564;28;20043;-65
2024/03/10 10:10:42;;;;;;;8.77;3.65;;;14.20;59.30;;;;;;5082425;28;20511;-65
2024/03/10 10:13:08;;;;;;;8.48;3.78;;;14.20;59.40;;;;;;5081689;28;20031;-63
2024/03/10 10:15:34;;;;;;;8.02;4.32;;;14.30;59.50;;;;;;5083061;28;20119;-64
2024/03/10 10:18:02;;;;;;;8.73;4.47;;;14.30;59.20;;;;;;5073388;28;20067;-64
2024/03/10 10:20:28;;;;;;;8.13;4.40;;;14.30;59.20;;;;;;5081632;28;20140;-64
2024/03/10 10:23:02;;;;;;;8.20;3.90;;;14.40;59.20;;;;;;5077398;28;20017;-64
2024/03/10 10:25:28;;;;;;;6.65;3.63;;;14.40;59.10;;;;;;5078293;28;20017;-64
2024/03/10 10:27:54;;;;;;;6.45;4.13;;;14.50;59.20;;;;;;5063385;28;20036;-64
2024/03/10 10:30:28;;;;;;;7.57;4.10;;;14.50;58.90;;;;;;5070414;28;20736;-64
2024/03/10 10:33:11;;;;;;;7.20;4.25;;;14.40;58.90;;;;;;5070810;28;20040;-64
2024/03/10 10:35:42;;;;;;;6.97;3.78;;;14.50;59.00;;;;;;5065495;28;20044;-64
2024/03/10 10:38:14;;;;;;;8.68;4.30;;;14.50;59.00;;;;;;5073474;28;20027;-64
2024/03/10 10:40:48;;;;;;;;;;;14.70;58.80;;;;;;5074921;28;20711;-64
2024/03/10 10:43:14;;;;;;;10.70;5.03;;;14.80;58.70;;;;;;5073187;28;19908;-64
2024/03/10 10:45:43;;;;;;;9.43;4.70;;;15.00;58.30;;;;;;5073847;28;20031;-62
2024/03/10 10:48:10;;;;;;;7.22;2.78;;;15.00;57.90;;;;;;5078772;28;20036;-62
2024/03/10 10:50:37;;;;;;;8.13;4.72;;;15.00;57.90;;;;;;5073661;28;20020;-62
2024/03/10 10:53:07;;;;;;;7.22;4.03;;;15.10;57.80;;;;;;5069523;28;20035;-62
2024/03/10 10:55:34;;;;;;;3.95;3.08;;;15.10;57.60;;;;;;5075030;28;20028;-62
2024/03/10 10:58:07;;;;;;;7.60;3.78;;;15.30;57.60;;;;;;5085619;28;20059;-62
2024/03/10 11:00:33;;;;;;;7.28;3.67;;;15.40;57.40;;;;;;5080494;28;20032;-61
2024/03/10 11:03:16;;;;;;;9.23;4.15;;;15.40;56.90;;;;;;5074778;28;20483;-62
2024/03/10 11:06:06;;;;;;;7.03;3.78;;;15.50;57.00;;;;;;5074682;28;20031;-62
2024/03/10 11:08:42;;;;;;;7.05;4.00;;;15.60;57.00;;;;;;5063320;28;20044;-64
2024/03/10 11:11:16;;;;;;;6.85;3.75;;;15.70;56.70;;;;;;5080224;28;20032;-64
2024/03/10 11:13:45;;;;;;;7.13;4.30;;;15.70;56.60;;;;;;5085689;28;20098;-61
2024/03/10 11:16:13;;;;;;;8.15;3.67;;;15.70;56.50;;;;;;5079168;28;20028;-61
2024/03/10 11:18:40;;;;;;;7.68;4.68;;;15.70;56.60;;;;;;5083827;28;20477;-61
2024/03/10 11:21:06;;;;;;;14.23;4.32;;;15.80;56.40;;;;;;5080630;28;20069;-62
2024/03/10 11:23:37;;;;;;;9.45;4.90;;;15.70;56.10;;;;;;5082841;28;20059;-62
2024/03/10 11:26:07;;;;;;;9.40;3.78;;;15.80;56.10;;;;;;5072183;28;20063;-62
2024/03/10 11:28:48;;;;;;;11.07;4.18;;;15.80;56.00;;;;;;5086590;28;20034;-61
2024/03/10 11:31:35;;;;;;;7.95;3.83;;;16.00;56.00;;;;;;5086032;28;20020;-64
2024/03/10 11:34:04;;;;;;;7.80;3.70;;;16.40;55.50;;;;;;5086393;28;20062;-64
2024/03/10 11:36:37;;;;;;;8.20;4.07;;;17.00;55.00;;;;;;5083844;28;20024;-63
2024/03/10 11:39:19;;;;;;;7.05;3.78;;;17.40;54.20;;;;;;5082348;28;20024;-64
2024/03/10 11:41:47;;;;;;;7.13;3.95;;;17.80;53.50;;;;;;5087105;28;20024;-64
2024/03/10 11:44:14;;;;;;;6.72;3.83;;;17.90;53.00;;;;;;5083631;28;20024;-64
2024/03/10 11:46:40;;;;;;;5.90;3.45;;;17.80;52.80;;;;;;5085651;28;20032;-64
2024/03/10 11:49:06;;;;;;;8.38;3.75;;;17.90;53.00;;;;;;5084239;28;20485;-63
2024/03/10 11:51:35;;;;;;;6.82;3.72;;;17.90;53.00;;;;;;5084661;28;20082;-65
2024/03/10 11:54:07;;;;;;;7.60;3.92;;;17.90;53.00;;;;;;5080427;28;20432;-63
2024/03/10 11:56:34;;;;;;;7.20;3.83;;;17.80;53.10;;;;;;5082849;28;20035;-64
2024/03/10 11:59:01;;;;;;;8.30;5.00;;;17.60;52.90;;;;;;5087121;28;20054;-63
2024/03/10 12:01:27;;;;;;;6.72;3.97;;;17.30;53.20;;;;;;5080140;28;20027;-63
2024/03/10 12:03:55;;;;;;;7.15;4.00;;;17.20;53.50;;;;;;5086496;28;20376;-63
2024/03/10 12:06:23;;;;;;;7.72;4.03;;;17.00;53.50;;;;;;5088159;28;20035;-64
2024/03/10 12:08:50;;;;;;;7.57;4.07;;;16.80;53.90;;;;;;5084053;28;20028;-64
2024/03/10 12:11:17;;;;;;;6.55;3.63;;;16.80;54.10;;;;;;5087200;28;20020;-64
2024/03/10 12:13:44;;;;;;;8.30;4.32;;;16.90;54.30;;;;;;5065219;28;20043;-64
2024/03/10 12:16:11;;;;;;;8.90;4.20;;;17.10;54.00;;;;;;5081995;28;20052;-64
2024/03/10 12:18:40;;;;;;;7.55;4.25;;;17.20;53.70;;;;;;5083903;28;20048;-64
2024/03/10 12:21:15;;;;;;;8.30;4.93;;;17.40;53.60;;;;;;5087148;28;20386;-64
2024/03/10 12:23:51;;;;;;;6.32;3.63;;;17.60;53.20;;;;;;5085257;28;20024;-64
2024/03/10 12:26:17;;;;;;;7.72;4.00;;;17.70;52.30;;;;;;5086178;28;20032;-64
2024/03/10 12:28:46;;;;;;;8.95;4.90;;;17.80;52.20;;;;;;5076322;28;20028;-64
2024/03/10 12:31:14;;;;;;;6.70;3.83;;;17.90;52.30;;;;;;5084197;28;20082;-64
2024/03/10 12:33:40;;;;;;;10.35;4.50;;;18.20;51.80;;;;;;5082597;28;20086;-64
2024/03/10 12:36:09;;;;;;;10.20;4.97;;;18.30;51.80;;;;;;5081403;28;20529;-64
2024/03/10 12:38:36;;;;;;;8.27;4.30;;;18.30;51.50;;;;;;5082794;28;20035;-64
2024/03/10 12:41:01;;;;;;;8.10;3.50;;;18.40;51.40;;;;;;5078633;28;20479;-64
2024/03/10 12:43:28;;;;;;;7.47;3.33;;;18.30;51.60;;;;;;5076941;28;20020;-64
2024/03/10 12:45:55;;;;;;;9.40;5.07;;;18.20;51.40;;;;;;5075970;28;20031;-64
2024/03/10 12:48:20;;;;;;;6.57;3.40;;;18.10;51.40;;;;;;5065603;28;20036;-63
2024/03/10 12:50:46;;;;;;;6.30;3.40;;;18.00;51.40;;;;;;5083420;28;20040;-64
2024/03/10 12:53:12;;;;;;;9.50;4.43;;;17.90;51.60;;;;;;5084422;28;20028;-64
2024/03/10 12:55:38;;;;;;;7.35;3.95;;;17.80;51.60;;;;;;5084508;28;20023;-63
2024/03/10 12:58:04;;;;;;;7.35;4.47;;;17.80;51.90;;;;;;5088285;28;20066;-64
2024/03/10 13:00:35;;;;;;;7.25;3.85;;;17.90;52.00;;;;;;5082588;28;20039;-64
2024/03/10 13:03:01;;;;;;;7.22;4.85;;;18.00;51.90;;;;;;5083626;28;20028;-63
2024/03/10 13:05:30;;;;;;;8.52;4.20;;;18.10;51.90;;;;;;5086678;28;20032;-63
2024/03/10 13:07:57;;;;;;;7.38;4.55;;;18.10;51.90;;;;;;5083698;28;20386;-63
2024/03/10 13:10:24;;;;;;;9.77;5.30;;;18.00;51.80;;;;;;5081318;28;20122;-64
2024/03/10 13:12:51;;;;;;;6.15;4.18;;;17.80;51.70;;;;;;5081920;28;20046;-64
2024/03/10 13:15:16;;;;;;;10.50;4.85;;;17.80;52.10;;;;;;5088620;28;20040;-63